createdAt,value
2022-11-24T00:01:20.717Z,4.88
2022-11-24T00:03:55.896Z,4.89
2022-11-24T00:06:24.993Z,4.90
2022-11-24T00:08:53.581Z,4.91
2022-11-24T00:11:24.121Z,4.92
2022-11-24T00:13:52.670Z,4.93
2022-11-24T00:16:23.335Z,4.96
2022-11-24T00:18:53.608Z,4.97
2022-11-24T00:21:23.414Z,4.97
2022-11-24T00:23:51.977Z,4.99
2022-11-24T00:26:21.717Z,4.99
2022-11-24T00:28:51.267Z,5.01
2022-11-24T00:31:21.113Z,5.02
2022-11-24T00:33:50.842Z,5.03
2022-11-24T00:36:20.546Z,5.07
2022-11-24T00:38:54.792Z,5.09
2022-11-24T00:41:23.331Z,5.13
2022-11-24T00:43:51.651Z,5.14
2022-11-24T00:46:20.090Z,5.16
2022-11-24T00:48:48.905Z,5.17
2022-11-24T00:51:18.663Z,5.19
2022-11-24T00:53:47.100Z,5.20
2022-11-24T00:56:16.843Z,5.21
2022-11-24T00:58:45.210Z,5.21
2022-11-24T01:01:14.751Z,5.21
2022-11-24T01:03:43.710Z,5.20
2022-11-24T01:06:13.825Z,5.20
2022-11-24T01:08:42.567Z,5.20
2022-11-24T01:11:12.843Z,5.20
2022-11-24T01:13:43.879Z,5.20
2022-11-24T01:16:16.582Z,5.18
2022-11-24T01:18:44.911Z,5.17
2022-11-24T01:21:13.218Z,5.15
2022-11-24T01:23:41.578Z,5.13
2022-11-24T01:26:12.351Z,5.12
2022-11-24T01:28:47.100Z,5.12
2022-11-24T01:31:16.909Z,5.10
2022-11-24T01:33:45.354Z,5.10
2022-11-24T01:36:13.729Z,5.11
2022-11-24T01:38:42.180Z,5.10
2022-11-24T01:41:13.121Z,5.10
2022-11-24T01:43:43.005Z,5.09
2022-11-24T01:46:18.912Z,5.08
2022-11-24T01:48:48.940Z,5.08
2022-11-24T01:51:20.331Z,5.06
2022-11-24T01:53:53.194Z,5.05
2022-11-24T01:56:21.693Z,5.03
2022-11-24T01:58:52.268Z,5.02
2022-11-24T02:01:20.733Z,5.00
2022-11-24T02:03:50.559Z,4.99
2022-11-24T02:06:21.496Z,4.98
2022-11-24T02:08:53.189Z,4.99
2022-11-24T02:11:22.688Z,4.98
2022-11-24T02:13:52.884Z,4.98
2022-11-24T02:16:21.244Z,4.98
2022-11-24T02:18:49.840Z,4.99
2022-11-24T02:21:18.501Z,4.99
2022-11-24T02:23:54.818Z,4.99
2022-11-24T02:26:33.721Z,4.99
2022-11-24T02:29:02.368Z,5.00
2022-11-24T02:31:30.715Z,5.00
2022-11-24T02:33:59.347Z,5.01
2022-11-24T02:36:27.710Z,5.02
2022-11-24T02:38:56.035Z,5.02
2022-11-24T02:41:26.769Z,5.01
2022-11-24T02:43:59.533Z,5.01
2022-11-24T02:46:27.899Z,5.03
2022-11-24T02:48:56.384Z,5.05
2022-11-24T02:51:24.715Z,5.07
2022-11-24T02:53:52.971Z,5.08
2022-11-24T02:56:21.272Z,5.09
2022-11-24T02:58:49.598Z,5.10
2022-11-24T03:01:19.575Z,5.13
2022-11-24T03:03:47.896Z,5.15
2022-11-24T03:06:16.246Z,5.17
2022-11-24T03:08:44.665Z,5.18
2022-11-24T03:11:12.950Z,5.18
2022-11-24T03:13:41.265Z,5.19
2022-11-24T03:16:11.540Z,5.20
2022-11-24T03:18:41.353Z,5.20
2022-11-24T03:21:09.649Z,5.21
2022-11-24T03:23:38.058Z,5.22
2022-11-24T03:26:10.479Z,5.23
2022-11-24T03:28:39.120Z,5.24
2022-11-24T03:31:07.978Z,5.25
2022-11-24T03:33:36.636Z,5.27
2022-11-24T03:36:07.780Z,5.28
2022-11-24T03:38:36.191Z,5.30
2022-11-24T03:41:04.704Z,5.32
2022-11-24T03:43:33.043Z,5.35
2022-11-24T03:46:01.444Z,5.38
2022-11-24T03:48:29.798Z,5.40
2022-11-24T03:50:59.757Z,5.43
2022-11-24T03:53:30.914Z,5.43
2022-11-24T03:55:59.544Z,5.46
2022-11-24T03:58:27.916Z,5.47
2022-11-24T04:00:56.294Z,5.46
2022-11-24T04:03:24.994Z,5.46
2022-11-24T04:05:53.320Z,5.46
2022-11-24T04:08:21.706Z,5.47
2022-11-24T04:10:53.463Z,5.48
2022-11-24T04:13:23.767Z,5.49
2022-11-24T04:15:52.485Z,5.51
2022-11-24T04:18:20.874Z,5.53
2022-11-24T04:20:50.800Z,5.53
2022-11-24T04:23:19.287Z,5.54
2022-11-24T04:25:47.713Z,5.57
2022-11-24T04:28:17.290Z,5.59
2022-11-24T04:30:45.528Z,5.59
2022-11-24T04:33:14.312Z,5.61
2022-11-24T04:35:42.602Z,5.62
2022-11-24T04:38:10.830Z,5.64
2022-11-24T04:40:39.277Z,5.67
2022-11-24T04:43:07.559Z,5.69
2022-11-24T04:45:37.191Z,5.71
2022-11-24T04:48:05.805Z,5.71
2022-11-24T04:50:34.007Z,5.71
2022-11-24T04:53:02.207Z,5.71
2022-11-24T04:55:30.529Z,5.72
2022-11-24T04:57:58.733Z,5.73
2022-11-24T05:00:26.935Z,5.73
2022-11-24T05:02:56.578Z,5.73
2022-11-24T05:05:24.767Z,5.73
2022-11-24T05:07:52.937Z,5.72
2022-11-24T05:10:36.064Z,5.71
2022-11-24T05:13:05.599Z,5.72
2022-11-24T05:15:33.819Z,5.74
2022-11-24T05:18:05.268Z,5.73
2022-11-24T05:20:33.481Z,5.75
2022-11-24T05:23:03.997Z,5.74
2022-11-24T05:25:32.538Z,5.76
2022-11-24T05:28:02.104Z,5.75
2022-11-24T05:30:30.813Z,5.75
2022-11-24T05:32:59.257Z,5.77
2022-11-24T05:35:29.150Z,5.77
2022-11-24T05:37:58.845Z,5.78
2022-11-24T05:40:26.974Z,5.80
2022-11-24T05:42:55.148Z,5.80
2022-11-24T05:45:23.445Z,5.81
2022-11-24T05:47:51.915Z,5.83
2022-11-24T05:50:21.988Z,5.84
2022-11-24T05:52:51.781Z,5.84
2022-11-24T05:55:21.834Z,5.86
2022-11-24T05:57:49.963Z,5.84
2022-11-24T06:00:20.213Z,5.86
2022-11-24T06:02:49.224Z,5.88
2022-11-24T06:05:17.719Z,5.88
2022-11-24T06:07:45.939Z,5.88
2022-11-24T06:10:17.043Z,5.89
2022-11-24T06:12:45.235Z,5.90
2022-11-24T06:15:14.005Z,5.92
2022-11-24T06:17:42.247Z,5.95
2022-11-24T06:20:11.756Z,5.95
2022-11-24T06:22:39.984Z,5.96
2022-11-24T06:25:09.433Z,5.98
2022-11-24T06:27:38.949Z,5.99
2022-11-24T06:30:07.819Z,5.99
2022-11-24T06:32:36.004Z,6.01
2022-11-24T06:35:04.844Z,6.02
2022-11-24T06:37:33.017Z,6.02
2022-11-24T06:40:01.231Z,6.04
2022-11-24T06:42:29.348Z,6.05
2022-11-24T06:44:58.870Z,6.07
2022-11-24T06:47:27.020Z,6.08
2022-11-24T06:49:55.160Z,6.08
2022-11-24T06:52:23.326Z,6.09
2022-11-24T06:54:51.453Z,6.10
2022-11-24T06:57:19.592Z,6.11
2022-11-24T06:59:47.781Z,6.12
2022-11-24T07:02:17.297Z,6.14
2022-11-24T07:04:45.484Z,6.17
2022-11-24T07:07:13.706Z,6.19
2022-11-24T07:09:41.840Z,6.22
2022-11-24T07:12:10.028Z,6.24
2022-11-24T07:14:38.230Z,6.27
2022-11-24T07:17:06.750Z,6.30
2022-11-24T07:19:36.350Z,6.32
2022-11-24T07:22:04.926Z,6.33
2022-11-24T07:24:33.409Z,6.34
2022-11-24T07:27:01.745Z,6.36
2022-11-24T07:29:29.902Z,6.38
2022-11-24T07:32:03.731Z,6.40
2022-11-24T07:34:33.745Z,6.41
2022-11-24T07:37:03.493Z,6.43
2022-11-24T07:39:31.622Z,6.44
2022-11-24T07:42:00.302Z,6.44
2022-11-24T07:44:28.579Z,6.44
2022-11-24T07:46:56.733Z,6.43
2022-11-24T07:49:24.884Z,6.43
2022-11-24T07:51:53.019Z,6.44
2022-11-24T07:54:22.570Z,6.46
2022-11-24T07:56:50.705Z,6.47
2022-11-24T07:59:18.938Z,6.49
2022-11-24T08:01:47.099Z,6.52
2022-11-24T08:04:15.224Z,6.54
2022-11-24T08:06:47.161Z,6.54
2022-11-24T08:09:15.707Z,6.56
2022-11-24T08:11:45.327Z,6.59
2022-11-24T08:14:13.477Z,6.60
2022-11-24T08:16:41.783Z,6.61
2022-11-24T08:19:11.878Z,6.64
2022-11-24T08:21:40.097Z,6.66
2022-11-24T08:24:09.618Z,6.68
2022-11-24T08:26:38.009Z,6.70
2022-11-24T08:29:07.547Z,6.71
2022-11-24T08:31:39.002Z,6.76
2022-11-24T08:34:07.393Z,6.81
2022-11-24T08:36:35.750Z,6.85
2022-11-24T08:39:04.629Z,6.89
2022-11-24T08:41:33.825Z,6.91
2022-11-24T08:44:01.978Z,6.93
2022-11-24T08:46:31.569Z,6.96
2022-11-24T08:48:59.783Z,6.99
2022-11-24T08:51:28.552Z,7.03
2022-11-24T08:53:58.362Z,7.06
2022-11-24T08:56:27.428Z,7.08
2022-11-24T08:58:56.098Z,7.11
2022-11-24T09:01:24.908Z,7.17
2022-11-24T09:03:54.704Z,7.21
2022-11-24T09:06:25.252Z,7.22
2022-11-24T09:08:54.480Z,7.25
2022-11-24T09:11:23.270Z,7.28
2022-11-24T09:13:51.907Z,7.30
2022-11-24T09:16:22.206Z,7.32
2022-11-24T09:18:59.419Z,7.37
2022-11-24T09:21:27.899Z,7.42
2022-11-24T09:23:56.184Z,7.45
2022-11-24T09:26:25.516Z,7.45
2022-11-24T09:28:55.421Z,7.47
2022-11-24T09:31:25.212Z,7.50
2022-11-24T09:33:53.940Z,7.52
2022-11-24T09:36:24.231Z,7.52
2022-11-24T09:38:52.466Z,7.55
2022-11-24T09:41:47.134Z,7.59
2022-11-24T09:44:47.710Z,7.61
2022-11-24T09:47:23.857Z,7.65
2022-11-24T09:49:57.305Z,7.66
2022-11-24T09:52:39.495Z,7.68
2022-11-24T09:55:21.286Z,7.68
2022-11-24T09:57:54.282Z,7.70
2022-11-24T10:00:22.632Z,7.71
2022-11-24T10:02:51.017Z,7.73
2022-11-24T10:05:20.180Z,7.75
2022-11-24T10:08:01.332Z,7.75
2022-11-24T10:10:36.074Z,7.77
2022-11-24T10:13:13.442Z,7.79
2022-11-24T10:15:45.949Z,7.80
2022-11-24T10:18:50.072Z,7.82
2022-11-24T10:21:32.665Z,7.82
2022-11-24T10:24:18.920Z,7.83
2022-11-24T10:26:51.846Z,7.88
2022-11-24T10:29:22.362Z,7.94
2022-11-24T10:31:53.375Z,7.98
2022-11-24T10:34:26.282Z,8.03
2022-11-24T10:36:59.095Z,8.08
2022-11-24T10:39:33.688Z,8.14
2022-11-24T10:42:06.832Z,8.18
2022-11-24T10:44:35.012Z,8.22
2022-11-24T10:47:03.881Z,8.23
2022-11-24T10:49:33.792Z,8.29
2022-11-24T10:52:07.041Z,8.33
2022-11-24T10:54:37.167Z,8.37
2022-11-24T10:57:05.434Z,8.39
2022-11-24T10:59:37.560Z,8.45
2022-11-24T11:02:34.935Z,8.52
2022-11-24T11:05:42.129Z,8.59
2022-11-24T11:08:22.402Z,8.63
2022-11-24T11:10:53.323Z,8.65
2022-11-24T11:13:25.943Z,8.66
2022-11-24T11:15:54.336Z,8.65
2022-11-24T11:18:23.500Z,8.65
2022-11-24T11:20:53.450Z,8.63
2022-11-24T11:23:28.965Z,8.63
2022-11-24T11:26:21.237Z,8.62
2022-11-24T11:34:48.358Z,8.66
2022-11-24T11:37:17.056Z,8.67
2022-11-24T11:39:48.992Z,8.69
2022-11-24T11:42:59.967Z,8.71
2022-11-24T11:45:16.553Z,8.76
2022-11-24T11:47:46.781Z,8.80
2022-11-24T11:50:16.408Z,8.84
2022-11-24T11:53:16.388Z,8.88
2022-11-24T11:55:51.259Z,8.90
2022-11-24T11:58:39.000Z,8.94
2022-11-24T12:01:16.511Z,8.97
2022-11-24T12:03:56.097Z,8.99
2022-11-24T12:06:35.711Z,8.98
2022-11-24T12:09:26.018Z,9.00
2022-11-24T12:12:06.751Z,9.04
2022-11-24T12:14:44.820Z,9.06
2022-11-24T12:17:21.075Z,9.09
2022-11-24T12:20:08.478Z,9.10
2022-11-24T12:22:43.063Z,9.09
2022-11-24T12:25:23.981Z,9.10
2022-11-24T12:28:02.425Z,9.10
2022-11-24T12:30:39.071Z,9.08
2022-11-24T12:33:33.071Z,9.09
2022-11-24T12:36:08.252Z,9.10
2022-11-24T12:38:46.911Z,9.12
2022-11-24T12:44:18.531Z,9.17
2022-11-24T12:46:57.978Z,9.17
2022-11-24T12:49:31.644Z,9.18
2022-11-24T12:52:04.153Z,9.17
2022-11-24T12:54:39.865Z,9.15
2022-11-24T12:57:11.460Z,9.15
2022-11-24T12:59:45.422Z,9.16
2022-11-24T13:02:22.473Z,9.16
2022-11-24T13:04:55.367Z,9.14
2022-11-24T13:07:28.456Z,9.13
2022-11-24T13:13:19.229Z,9.12
2022-11-24T13:19:15.552Z,9.12
2022-11-24T13:22:03.743Z,9.10
2022-11-24T13:24:33.774Z,9.07
2022-11-24T13:27:46.223Z,9.05
2022-11-24T13:30:53.880Z,9.05
2022-11-24T13:33:31.114Z,9.03
2022-11-24T13:36:58.759Z,9.04
2022-11-24T13:39:51.805Z,9.06
2022-11-24T13:42:43.683Z,9.05
2022-11-24T13:45:30.741Z,9.03
2022-11-24T13:47:58.991Z,9.02
2022-11-24T13:51:01.455Z,8.99
2022-11-24T13:53:33.450Z,8.97
2022-11-24T13:56:10.539Z,8.97
2022-11-24T13:58:40.028Z,8.94
2022-11-24T14:01:19.054Z,8.94
2022-11-24T14:04:28.743Z,8.93
2022-11-24T14:06:47.887Z,8.93
2022-11-24T14:09:36.296Z,8.92
2022-11-24T14:12:12.981Z,8.94
2022-11-24T14:14:41.267Z,8.96
2022-11-24T14:17:17.102Z,8.97
2022-11-24T14:19:46.706Z,8.97
2022-11-24T14:22:18.889Z,8.97
2022-11-24T14:24:52.511Z,8.96
2022-11-24T14:27:27.550Z,8.95
2022-11-24T14:29:57.336Z,8.93
2022-11-24T14:32:25.633Z,8.92
2022-11-24T14:34:54.495Z,8.89
2022-11-24T14:37:22.904Z,8.88
2022-11-24T14:39:51.041Z,8.87
2022-11-24T14:42:23.163Z,8.87
2022-11-24T14:44:54.131Z,8.89
2022-11-24T14:47:46.017Z,8.87
2022-11-24T14:50:18.289Z,8.84
2022-11-24T14:52:51.458Z,8.84
2022-11-24T14:55:28.143Z,8.81
2022-11-24T14:57:57.880Z,8.80
2022-11-24T15:00:31.086Z,8.76
2022-11-24T15:03:16.015Z,8.77
2022-11-24T15:05:55.928Z,8.76
2022-11-24T15:08:25.244Z,8.76
2022-11-24T15:10:58.768Z,8.75
2022-11-24T15:13:29.121Z,8.75
2022-11-24T15:16:02.862Z,8.76
2022-11-24T15:18:38.475Z,8.75
2022-11-24T15:21:06.809Z,8.73
2022-11-24T15:23:35.409Z,8.71
2022-11-24T15:26:31.305Z,8.70
2022-11-24T15:29:02.650Z,8.69
2022-11-24T15:31:31.084Z,8.70
2022-11-24T15:33:59.270Z,8.68
2022-11-24T15:36:27.524Z,8.69
2022-11-24T15:38:55.653Z,8.70
2022-11-24T15:41:27.681Z,8.70
2022-11-24T15:43:59.156Z,8.70
2022-11-24T15:46:29.662Z,8.71
2022-11-24T15:48:58.044Z,8.68
2022-11-24T15:51:27.384Z,8.68
2022-11-24T15:54:00.666Z,8.68
2022-11-24T15:56:31.813Z,8.65
2022-11-24T15:59:00.103Z,8.62
2022-11-24T16:01:32.073Z,8.57
2022-11-24T16:04:00.572Z,8.51
2022-11-24T16:06:28.700Z,8.43
2022-11-24T16:08:58.075Z,8.35
2022-11-24T16:11:26.399Z,8.26
2022-11-24T16:13:54.802Z,8.15
2022-11-24T16:16:24.642Z,8.04
2022-11-24T16:18:54.474Z,7.92
2022-11-24T16:21:23.196Z,7.81
2022-11-24T16:23:51.787Z,7.69
2022-11-24T16:26:19.946Z,7.61
2022-11-24T16:28:48.063Z,7.56
2022-11-24T16:31:16.667Z,7.53
2022-11-24T16:33:46.440Z,7.52
2022-11-24T16:36:16.347Z,7.51
2022-11-24T16:38:44.919Z,7.50
2022-11-24T16:41:13.174Z,7.53
2022-11-24T16:43:41.376Z,7.57
2022-11-24T16:46:20.266Z,7.61
2022-11-24T16:48:49.585Z,7.65
2022-11-24T16:51:20.171Z,7.69
2022-11-24T16:53:48.878Z,7.71
2022-11-24T16:56:17.546Z,7.75
2022-11-24T16:58:45.725Z,7.77
2022-11-24T17:01:14.754Z,7.79
2022-11-24T17:03:43.157Z,7.82
2022-11-24T17:06:12.865Z,7.84
2022-11-24T17:08:42.821Z,7.87
2022-11-24T17:11:12.343Z,7.89
2022-11-24T17:13:41.217Z,7.91
2022-11-24T17:16:11.444Z,7.93
2022-11-24T17:18:40.129Z,7.94
2022-11-24T17:21:10.126Z,7.95
2022-11-24T17:23:38.846Z,7.97
2022-11-24T17:26:11.529Z,7.99
2022-11-24T17:28:40.689Z,8.01
2022-11-24T17:31:09.475Z,8.03
2022-11-24T17:33:37.703Z,8.05
2022-11-24T17:36:07.617Z,8.07
2022-11-24T17:38:36.949Z,8.08
2022-11-24T17:41:05.150Z,8.10
2022-11-24T17:43:34.656Z,8.12
2022-11-24T17:46:03.816Z,8.13
2022-11-24T17:48:32.976Z,8.14
2022-11-24T17:51:02.090Z,8.16
2022-11-24T17:53:30.541Z,8.17
2022-11-24T17:56:00.632Z,8.17
2022-11-24T17:58:29.149Z,8.18
2022-11-24T18:00:59.347Z,8.19
2022-11-24T18:03:31.452Z,8.22
2022-11-24T18:06:05.123Z,8.21
2022-11-24T18:08:34.112Z,8.23
2022-11-24T18:11:06.116Z,8.23
2022-11-24T18:13:55.731Z,8.24
2022-11-24T18:16:27.704Z,8.26
2022-11-24T18:19:07.854Z,8.25
2022-11-24T18:21:37.306Z,8.27
2022-11-24T18:24:05.707Z,8.29
2022-11-24T18:26:33.852Z,8.29
2022-11-24T18:29:01.996Z,8.30
2022-11-24T18:31:34.178Z,8.29
2022-11-24T18:34:02.974Z,8.31
2022-11-24T18:36:31.211Z,8.31
2022-11-24T18:39:01.268Z,8.32
2022-11-24T18:41:29.473Z,8.32
2022-11-24T18:43:57.604Z,8.31
2022-11-24T18:46:25.900Z,8.30
2022-11-24T18:48:56.106Z,8.26
2022-11-24T18:51:27.196Z,8.21
2022-11-24T18:53:57.904Z,8.14
2022-11-24T18:56:26.534Z,8.06
2022-11-24T18:58:55.290Z,7.98
2022-11-24T19:01:25.090Z,7.88
2022-11-24T19:03:56.328Z,7.80
2022-11-24T19:06:28.767Z,7.72
2022-11-24T19:08:57.214Z,7.65
2022-11-24T19:11:26.868Z,7.58
2022-11-24T19:13:55.586Z,7.51
2022-11-24T19:16:24.588Z,7.43
2022-11-24T19:18:54.579Z,7.36
2022-11-24T19:21:24.269Z,7.30
2022-11-24T19:23:52.453Z,7.22
2022-11-24T19:26:20.917Z,7.14
2022-11-24T19:28:49.133Z,7.05
2022-11-24T19:31:19.062Z,7.00
2022-11-24T19:33:47.227Z,6.93
2022-11-24T19:36:16.978Z,6.87
2022-11-24T19:38:50.986Z,6.82
2022-11-24T19:41:20.687Z,6.77
2022-11-24T19:43:49.291Z,6.72
2022-11-24T19:46:18.856Z,6.68
2022-11-24T19:48:50.182Z,6.67
2022-11-24T19:51:20.509Z,6.65
2022-11-24T19:53:50.203Z,6.64
2022-11-24T19:56:19.572Z,6.64
2022-11-24T19:58:48.311Z,6.65
2022-11-24T20:01:17.906Z,6.67
2022-11-24T20:03:47.748Z,6.68
2022-11-24T20:06:16.587Z,6.68
2022-11-24T20:08:44.788Z,6.67
2022-11-24T20:11:15.801Z,6.66
2022-11-24T20:13:45.648Z,6.63
2022-11-24T20:16:14.944Z,6.61
2022-11-24T20:18:44.605Z,6.57
2022-11-24T20:21:15.147Z,6.52
2022-11-24T20:23:43.543Z,6.48
2022-11-24T20:26:14.860Z,6.43
2022-11-24T20:28:43.621Z,6.38
2022-11-24T20:31:14.689Z,6.34
2022-11-24T20:33:43.535Z,6.28
2022-11-24T20:36:13.952Z,6.24
2022-11-24T20:38:42.978Z,6.17
2022-11-24T20:41:12.903Z,6.12
2022-11-24T20:43:44.025Z,6.07
2022-11-24T20:46:14.862Z,6.04
2022-11-24T20:48:43.402Z,6.01
2022-11-24T20:51:13.635Z,5.98
2022-11-24T20:53:42.541Z,5.95
2022-11-24T20:56:12.623Z,5.92
2022-11-24T20:58:42.370Z,5.85
2022-11-24T21:01:12.372Z,5.81
2022-11-24T21:03:43.275Z,5.76
2022-11-24T21:06:12.180Z,5.68
2022-11-24T21:08:41.697Z,5.59
2022-11-24T21:11:11.469Z,5.51
2022-11-24T21:13:41.300Z,5.43
2022-11-24T21:16:15.474Z,5.34
2022-11-24T21:18:44.537Z,5.25
2022-11-24T21:21:13.125Z,5.18
2022-11-24T21:23:41.389Z,5.13
2022-11-24T21:26:15.054Z,5.08
2022-11-24T21:28:45.913Z,5.02
2022-11-24T21:31:17.617Z,4.97
2022-11-24T21:33:47.061Z,4.95
2022-11-24T21:36:17.700Z,4.93
2022-11-24T21:38:50.692Z,4.94
2022-11-24T21:41:19.507Z,4.94
2022-11-24T21:43:48.112Z,4.95
2022-11-24T21:46:18.226Z,4.96
2022-11-24T21:48:46.418Z,4.99
2022-11-24T21:51:15.568Z,5.01
2022-11-24T21:53:44.400Z,5.01
2022-11-24T21:56:14.230Z,5.01
2022-11-24T21:58:47.208Z,5.01
2022-11-24T22:01:17.808Z,5.01
2022-11-24T22:03:46.806Z,5.01
2022-11-24T22:06:15.325Z,5.00
2022-11-24T22:08:43.498Z,4.99
2022-11-24T22:11:13.590Z,4.96
2022-11-24T22:13:42.133Z,4.90
2022-11-24T22:16:12.115Z,4.87
2022-11-24T22:18:43.455Z,4.85
2022-11-24T22:21:14.234Z,4.81
2022-11-24T22:23:42.828Z,4.78
2022-11-24T22:26:14.943Z,4.72
2022-11-24T22:28:43.981Z,4.68
2022-11-24T22:31:13.526Z,4.63
2022-11-24T22:33:43.705Z,4.57
2022-11-24T22:36:12.872Z,4.54
2022-11-24T22:38:41.516Z,4.52
2022-11-24T22:41:11.308Z,4.52
2022-11-24T22:43:40.762Z,4.52
2022-11-24T22:46:11.041Z,4.50
2022-11-24T22:48:39.836Z,4.49
2022-11-24T22:51:11.712Z,4.50
2022-11-24T22:53:40.428Z,4.50
2022-11-24T22:56:10.506Z,4.49
2022-11-24T22:58:39.488Z,4.48
2022-11-24T23:01:08.300Z,4.47
2022-11-24T23:03:36.736Z,4.43
2022-11-24T23:06:06.099Z,4.38
2022-11-24T23:08:37.008Z,4.35
2022-11-24T23:11:06.957Z,4.29
2022-11-24T23:13:35.487Z,4.24
2022-11-24T23:16:04.950Z,4.18
2022-11-24T23:18:33.247Z,4.12
2022-11-24T23:21:06.488Z,4.07
2022-11-24T23:23:36.119Z,4.01
2022-11-24T23:26:05.316Z,3.96
2022-11-24T23:28:33.794Z,3.91
2022-11-24T23:31:02.851Z,3.84
2022-11-24T23:33:31.225Z,3.77
2022-11-24T23:36:02.102Z,3.70
2022-11-24T23:38:32.523Z,3.63
2022-11-24T23:41:04.435Z,3.57
2022-11-24T23:43:32.819Z,3.50
2022-11-24T23:46:04.370Z,3.46
2022-11-24T23:48:32.863Z,3.42
2022-11-24T23:51:05.276Z,3.39
2022-11-24T23:53:33.722Z,3.37
2022-11-24T23:56:03.811Z,3.35
2022-11-24T23:58:33.015Z,3.35
